TPA weather

Tampa International Airport
Tampa, Florida, United States

Public forecast

Using degrees Fahrenheit for public forecast. Weather courtesy of forecast.io.

Current aviation weather report (METAR) for Tampa International Airport

Retrieved 2019/12/05 20:53 UTC (1 hour ago):

KTPA 052053Z VRB03KT 10SM BKN350 21/03 A3010 RMK AO2 SLP191 T02060028 57011

Aviation forecast (TAF) for Tampa International Airport

Retrieved 2019/12/05 18:24 UTC (4 hours ago):

TAF KTPA 051721Z 0518/0624 03007KT P6SM BKN250 FM052100 31006KT P6SM BKN250 FM060000 VRB03KT P6SM BKN250 FM061800 22007KT P6SM SCT250